»·PEaware :: N786SC L88-KSBP

N786SC :: L88-KSBP

FLIGHT INFORMATION

Flight Status: Arrived
Operator: Privately registered:
United States
More flights under this callsign
Pilot: Jereme M. (20698)
Aircraft: CESSNA 172 SKYHAWK
(C172)
More flights by this aircraft type
Origin: L88 New Cuyama
United States
Destination: KSBP San Luis Co Regl
United States
More flights between these airports :: More routes between these airports
Route: POZOE
File this flight plan on PilotEdge
Remarks: CAT-02
Altitude:
(Current/Filed)
6,500ft
Speed:
(Current/Filed)
110kts
Departed: 06-Oct-18 04:46 PM
Arrived: 06-Oct-18 05:17 PM
Distance/Time
Traveled:
50nm/0:30
Distance/Time
To Go:
Arrived

Flight Plot

Page will automatically refresh every two minutes.


Map Options




Map Legend


Flown Route
Filed Route
Departure Airport
Arrival Airport
Navaid (VOR, NDB)
Fix

Horizontal Profiles

Position Reports

Time Latitude Longitude Heading Altitude Ground
Speed
06-Oct-18 16:22 34.942710 -119.690768 20 2161ft 0kts
06-Oct-18 16:23 34.942710 -119.690768 20 2161ft 0kts
06-Oct-18 16:25 34.942710 -119.690768 20 2161ft 0kts
06-Oct-18 16:26 34.942710 -119.690768 20 2161ft 0kts
06-Oct-18 16:27 34.942710 -119.690768 20 2161ft 0kts
06-Oct-18 16:28 34.942710 -119.690768 20 2161ft 0kts
06-Oct-18 16:29 34.942710 -119.690768 20 2161ft 0kts
06-Oct-18 16:30 34.942710 -119.690768 20 2161ft 0kts
06-Oct-18 16:31 34.942710 -119.690768 20 2161ft 0kts
06-Oct-18 16:32 34.942710 -119.690768 20 2161ft 0kts
06-Oct-18 16:33 34.942710 -119.690768 20 2161ft 0kts
06-Oct-18 16:34 34.942710 -119.690768 20 2161ft 0kts
06-Oct-18 16:35 34.942710 -119.690768 20 2161ft 0kts
06-Oct-18 16:36 34.942710 -119.690768 20 2161ft 0kts
06-Oct-18 16:37 34.942710 -119.690768 20 2161ft 0kts
06-Oct-18 16:38 34.942714 -119.690767 15 2161ft 0kts
06-Oct-18 16:39 34.942714 -119.690767 15 2161ft 0kts
06-Oct-18 16:40 34.942714 -119.690767 15 2161ft 0kts
06-Oct-18 16:41 34.942714 -119.690767 15 2161ft 0kts
06-Oct-18 16:42 34.942714 -119.690767 15 2161ft 0kts
06-Oct-18 16:43 34.942714 -119.690767 15 2161ft 0kts
06-Oct-18 16:44 34.942714 -119.690767 15 2161ft 0kts
06-Oct-18 16:45 34.942714 -119.690767 15 2161ft 0kts
06-Oct-18 16:46 34.941853 -119.690210 117 2166ft 19kts
06-Oct-18 16:47 34.937762 -119.680047 115 2210ft 15kts
06-Oct-18 16:48 34.939491 -119.684396 296 2223ft 68kts
06-Oct-18 16:49 34.951140 -119.707693 300 2804ft 84kts
06-Oct-18 16:50 34.962462 -119.731155 295 3467ft 85kts
06-Oct-18 16:51 34.972192 -119.756301 294 4152ft 82kts
06-Oct-18 16:52 34.982230 -119.782122 294 4763ft 86kts
06-Oct-18 16:53 34.992859 -119.808368 295 5363ft 85kts
06-Oct-18 16:54 35.003040 -119.833884 294 5960ft 81kts
06-Oct-18 16:55 35.012846 -119.859074 294 6466ft 83kts
06-Oct-18 16:56 35.023828 -119.887170 295 6575ft 118kts
06-Oct-18 16:57 35.038514 -119.924461 295 6537ft 113kts
06-Oct-18 16:58 35.049242 -119.951677 295 6533ft 104kts
06-Oct-18 16:59 35.064421 -119.990179 295 6536ft 111kts
06-Oct-18 17:00 35.075633 -120.018604 295 6537ft 112kts
06-Oct-18 17:01 35.091442 -120.058621 295 6537ft 112kts
06-Oct-18 17:02 35.102715 -120.087175 295 6537ft 112kts
06-Oct-18 17:03 35.118322 -120.127420 293 6537ft 112kts
06-Oct-18 17:04 35.128436 -120.156775 292 6537ft 112kts
06-Oct-18 17:05 35.140522 -120.191915 292 6537ft 112kts
06-Oct-18 17:06 35.152656 -120.227178 292 6537ft 112kts
06-Oct-18 17:07 35.162856 -120.263412 284 6373ft 114kts
06-Oct-18 17:08 35.168595 -120.301736 280 5873ft 113kts
06-Oct-18 17:09 35.173993 -120.339834 280 5236ft 114kts
06-Oct-18 17:10 35.179351 -120.377641 280 4538ft 112kts
06-Oct-18 17:11 35.183968 -120.415113 277 3837ft 111kts
06-Oct-18 17:12 35.187565 -120.451793 277 3310ft 101kts
06-Oct-18 17:13 35.190587 -120.482837 276 3173ft 87kts
06-Oct-18 17:14 35.194068 -120.518262 277 2479ft 118kts
06-Oct-18 17:15 35.198161 -120.555487 281 1684ft 96kts
06-Oct-18 17:16 35.206017 -120.583734 294 1105ft 88kts
06-Oct-18 17:17 35.218260 -120.608080 305 800ft 74kts
06-Oct-18 17:18 35.229892 -120.627958 305 398ft 64kts
06-Oct-18 17:19 35.237408 -120.639924 4 215ft 3kts
06-Oct-18 17:20 35.237510 -120.639908 9 215ft 0kts
06-Oct-18 17:21 35.237510 -120.639908 9 215ft 0kts
06-Oct-18 17:22 35.237632 -120.639894 4 215ft 4kts
06-Oct-18 17:23 35.238645 -120.640035 216 215ft 0kts
06-Oct-18 17:24 35.238645 -120.640034 217 215ft 0kts
06-Oct-18 17:25 35.238645 -120.640034 217 215ft 0kts
06-Oct-18 17:26 35.238645 -120.640034 217 215ft 0kts
06-Oct-18 17:27 35.238645 -120.640034 217 215ft 0kts
06-Oct-18 17:28 35.238645 -120.640034 217 215ft 0kts
06-Oct-18 17:29 35.238645 -120.640034 217 215ft 0kts
06-Oct-18 17:30 35.238645 -120.640034 217 215ft 0kts
06-Oct-18 17:31 35.238645 -120.640034 217 215ft 0kts
06-Oct-18 17:32 35.238645 -120.640034 217 215ft 0kts
06-Oct-18 17:33 35.238645 -120.640034 217 215ft 0kts

Navigation Log

Ident Type
Flight plan parsing failed, navigation log unavailable